Time;durP1;ratioP1;P1;durP2;ratioP2;P2;SDS_P1;SDS_P2;PMS_P1;PMS_P2;Temp;Humidity;BMP_temperature;BMP_pressure;BME280_temperature;BME280_humidity;BME280_pressure;Samples;Min_cycle;Max_cycle;Signal;HPM_P1;HPM_P2
2022/04/02 00:02:23;;;;;;;24.77;22.57;;;1.50;99.90;;;;;;4995012;28;20901;-80
2022/04/02 00:04:50;;;;;;;26.30;23.93;;;1.40;99.90;;;;;;4991374;28;20444;-81
2022/04/02 00:07:17;;;;;;;21.23;18.93;;;1.50;99.90;;;;;;4989583;28;20529;-81
2022/04/02 00:09:45;;;;;;;24.80;22.40;;;1.60;99.90;;;;;;4992521;28;20466;-81
2022/04/02 00:12:12;;;;;;;25.40;23.10;;;1.60;99.90;;;;;;4991107;28;20471;-80
2022/04/02 00:14:39;;;;;;;22.57;20.47;;;1.50;99.90;;;;;;4990104;28;20464;-80
2022/04/02 00:17:07;;;;;;;19.37;17.30;;;1.50;99.90;;;;;;4989881;28;20479;-80
2022/04/02 00:19:35;;;;;;;21.07;19.00;;;1.60;99.90;;;;;;4978165;28;20460;-81
2022/04/02 00:22:02;;;;;;;23.80;21.60;;;1.50;99.90;;;;;;4993729;28;20450;-79
2022/04/02 00:24:28;;;;;;;21.67;19.67;;;1.60;99.90;;;;;;4992935;28;20855;-80
2022/04/02 00:26:57;;;;;;;21.73;19.73;;;1.50;99.90;;;;;;4988902;28;20481;-81
2022/04/02 00:29:25;;;;;;;22.00;19.90;;;1.50;99.90;;;;;;5025328;23;20583;-77
2022/04/02 00:31:54;;;;;;;24.20;21.90;;;1.50;99.90;;;;;;5001518;28;20453;-77
2022/04/02 00:34:21;;;;;;;22.00;19.90;;;1.50;99.90;;;;;;5004831;28;20431;-77
2022/04/02 00:36:48;;;;;;;18.00;15.40;;;1.50;99.90;;;;;;4999470;28;20457;-76
2022/04/02 00:39:14;;;;;;;17.00;13.63;;;1.40;99.90;;;;;;4986340;28;20478;-77
2022/04/02 00:41:41;;;;;;;16.87;14.00;;;1.50;99.90;;;;;;4985383;28;20463;-77
2022/04/02 00:44:12;;;;;;;16.23;14.03;;;1.50;99.90;;;;;;4979613;28;20453;-77
2022/04/02 00:46:40;;;;;;;17.03;14.40;;;1.60;99.90;;;;;;4978077;28;20975;-77
2022/04/02 00:49:08;;;;;;;16.37;13.97;;;1.50;99.90;;;;;;4985606;28;21064;-77
2022/04/02 00:51:41;;;;;;;17.50;14.30;;;1.50;99.90;;;;;;4979963;28;20470;-77
2022/04/02 00:54:09;;;;;;;14.43;12.90;;;1.60;99.90;;;;;;4981744;28;20477;-77
2022/04/02 00:56:37;;;;;;;14.80;13.20;;;1.60;99.90;;;;;;4974808;28;20515;-77
2022/04/02 00:59:04;;;;;;;15.90;13.63;;;1.60;99.90;;;;;;4984009;28;20555;-77
2022/04/02 01:01:34;;;;;;;16.50;14.00;;;1.50;99.90;;;;;;4987075;28;20480;-77
2022/04/02 01:04:02;;;;;;;17.50;14.63;;;1.50;99.90;;;;;;4990059;28;20906;-77
2022/04/02 01:06:36;;;;;;;15.17;13.57;;;1.60;99.90;;;;;;4982224;28;20977;-76
2022/04/02 01:09:04;;;;;;;16.23;13.97;;;1.50;99.90;;;;;;4991011;28;20480;-77
2022/04/02 01:11:38;;;;;;;16.13;13.90;;;1.50;99.90;;;;;;4992802;28;20446;-77
2022/04/02 01:14:07;;;;;;;17.03;15.13;;;1.40;99.90;;;;;;4991481;28;20839;-77
2022/04/02 01:16:36;;;;;;;23.00;20.80;;;1.50;99.90;;;;;;4986333;28;20437;-77
2022/04/02 01:19:07;;;;;;;21.97;19.87;;;1.40;99.90;;;;;;4988559;28;20827;-77
2022/04/02 01:21:34;;;;;;;18.57;15.40;;;1.40;99.90;;;;;;4984822;28;20459;-77
2022/04/02 01:24:16;;;;;;;21.47;19.27;;;1.30;99.90;;;;;;4981658;28;20509;-77
2022/04/02 01:26:44;;;;;;;22.10;19.90;;;1.40;99.90;;;;;;4986895;28;20559;-77
2022/04/02 01:29:19;;;;;;;21.47;19.30;;;1.50;99.90;;;;;;4987664;28;20589;-77
2022/04/02 01:31:54;;;;;;;18.47;16.47;;;1.50;99.90;;;;;;4980954;28;20514;-77
2022/04/02 01:34:22;;;;;;;18.93;16.90;;;1.50;99.90;;;;;;4985382;28;20535;-76
2022/04/02 01:36:53;;;;;;;20.67;18.57;;;1.50;99.90;;;;;;4985167;28;20454;-76
2022/04/02 01:39:27;;;;;;;22.57;20.27;;;1.50;99.90;;;;;;4988299;28;20477;-77
2022/04/02 01:41:54;;;;;;;19.67;16.80;;;1.50;99.90;;;;;;4987944;28;20456;-77
2022/04/02 01:44:28;;;;;;;16.67;14.43;;;1.50;99.90;;;;;;4986023;28;20987;-76
2022/04/02 01:46:54;;;;;;;19.77;17.00;;;1.50;99.90;;;;;;4985303;28;21004;-77
2022/04/02 01:49:22;;;;;;;19.43;16.70;;;1.40;99.90;;;;;;4988533;28;20523;-77
2022/04/02 01:51:50;;;;;;;18.77;16.50;;;1.50;99.90;;;;;;4986114;28;20638;-77
2022/04/02 01:54:20;;;;;;;20.60;18.40;;;1.50;99.90;;;;;;4977705;28;21077;-77
2022/04/02 01:56:51;;;;;;;21.70;19.40;;;1.40;99.90;;;;;;4977111;28;20449;-76
2022/04/02 01:59:20;;;;;;;21.60;19.40;;;1.50;99.90;;;;;;4982083;28;20565;-76
2022/04/02 02:01:51;;;;;;;21.50;19.23;;;1.50;99.90;;;;;;4983596;28;20930;-77
2022/04/02 02:04:19;;;;;;;20.97;18.80;;;1.50;99.90;;;;;;4985222;28;20458;-76
2022/04/02 02:06:45;;;;;;;21.17;18.50;;;1.50;99.90;;;;;;4987251;28;20953;-77
2022/04/02 02:09:16;;;;;;;20.33;18.17;;;1.50;99.90;;;;;;4986378;28;20464;-77
2022/04/02 02:11:57;;;;;;;19.13;17.13;;;1.50;99.90;;;;;;4981019;28;20449;-77
2022/04/02 02:14:50;;;;;;;19.90;17.80;;;1.50;99.90;;;;;;4972137;28;21418;-77
2022/04/02 02:17:19;;;;;;;23.17;20.13;;;1.50;99.90;;;;;;4987242;28;20480;-77
2022/04/02 02:19:50;;;;;;;20.80;18.73;;;1.50;99.90;;;;;;4987233;28;20468;-76
2022/04/02 02:22:17;;;;;;;22.23;18.90;;;1.50;99.90;;;;;;4986145;28;20464;-77
2022/04/02 02:24:44;;;;;;;21.10;18.73;;;1.50;99.90;;;;;;4984498;28;20441;-77
2022/04/02 02:27:12;;;;;;;21.30;19.03;;;1.50;99.90;;;;;;4981917;28;20508;-77
2022/04/02 02:29:39;;;;;;;23.57;20.60;;;1.50;99.90;;;;;;4985434;28;20540;-77
2022/04/02 02:32:17;;;;;;;22.17;19.93;;;1.50;99.90;;;;;;4985535;28;20461;-77
2022/04/02 02:37:30;;;;;;;24.83;22.33;;;1.40;99.90;;;;;;4983898;28;20450;-76
2022/04/02 02:40:04;;;;;;;20.33;17.07;;;1.40;99.90;;;;;;4978905;28;20481;-79
2022/04/02 02:42:32;;;;;;;22.27;18.97;;;1.40;99.90;;;;;;4979282;28;20692;-78
2022/04/02 02:45:17;;;;;;;25.77;23.27;;;1.30;99.90;;;;;;4983940;28;20541;-77
2022/04/02 02:47:44;;;;;;;26.20;23.57;;;1.40;99.90;;;;;;4983115;28;20453;-77
2022/04/02 02:50:12;;;;;;;26.90;24.40;;;1.30;99.90;;;;;;4981490;28;20574;-77
2022/04/02 02:52:48;;;;;;;24.37;22.17;;;1.40;99.90;;;;;;4986091;28;20452;-77
2022/04/02 02:55:17;;;;;;;25.23;22.90;;;1.40;99.90;;;;;;4985646;28;20495;-75
2022/04/02 02:57:46;;;;;;;26.33;23.73;;;1.40;99.90;;;;;;4947770;28;20473;-77
2022/04/02 03:00:15;;;;;;;26.07;23.60;;;1.40;99.90;;;;;;4965237;28;20847;-77
2022/04/02 03:02:43;;;;;;;26.23;23.67;;;1.40;99.90;;;;;;4970204;28;20467;-77
2022/04/02 03:05:18;;;;;;;24.70;22.50;;;1.40;99.90;;;;;;4958822;28;20463;-77
2022/04/02 03:07:49;;;;;;;25.63;23.20;;;1.50;99.90;;;;;;4956147;28;20465;-77
2022/04/02 03:10:23;;;;;;;26.57;23.93;;;1.40;99.90;;;;;;4969945;28;20461;-77
2022/04/02 03:12:53;;;;;;;25.50;23.10;;;1.40;99.90;;;;;;4972060;28;20460;-77
2022/04/02 03:15:22;;;;;;;25.33;22.97;;;1.50;99.90;;;;;;4963473;28;20549;-77
2022/04/02 03:17:51;;;;;;;23.47;21.33;;;1.40;99.90;;;;;;4973449;28;20456;-77
2022/04/02 03:20:20;;;;;;;24.53;22.13;;;1.40;99.90;;;;;;4963623;28;20882;-77
2022/04/02 03:22:49;;;;;;;24.47;22.17;;;1.40;99.90;;;;;;4973530;28;20814;-76
2022/04/02 03:25:19;;;;;;;24.90;22.37;;;1.40;99.90;;;;;;4965403;28;20462;-76
2022/04/02 03:27:47;;;;;;;25.27;22.90;;;1.30;99.90;;;;;;4971543;28;20437;-76
2022/04/02 03:30:19;;;;;;;24.53;22.40;;;1.40;99.90;;;;;;4973527;28;20480;-78
2022/04/02 03:32:49;;;;;;;25.20;22.63;;;1.40;99.90;;;;;;4975192;28;20452;-76
2022/04/02 03:35:17;;;;;;;23.53;21.13;;;1.40;99.90;;;;;;4972278;28;20479;-76
2022/04/02 03:37:48;;;;;;;24.37;22.13;;;1.40;99.90;;;;;;4982175;28;20452;-77
2022/04/02 03:40:20;;;;;;;24.90;22.50;;;1.30;99.90;;;;;;4983637;28;20553;-79
2022/04/02 03:42:48;;;;;;;24.83;22.53;;;1.30;99.90;;;;;;4985658;28;20465;-80
2022/04/02 03:45:21;;;;;;;26.43;23.93;;;1.30;99.90;;;;;;4983803;28;20447;-79
2022/04/02 03:47:50;;;;;;;24.67;22.43;;;1.30;99.90;;;;;;4963739;28;20458;-78
2022/04/02 03:50:18;;;;;;;24.50;22.27;;;1.20;99.90;;;;;;4968867;28;20462;-77
2022/04/02 03:52:49;;;;;;;24.20;22.07;;;1.20;99.90;;;;;;4971822;28;20453;-78
2022/04/02 03:55:22;;;;;;;26.53;23.93;;;1.20;99.90;;;;;;4975436;28;20510;-77
2022/04/02 03:57:50;;;;;;;25.77;23.17;;;1.20;99.90;;;;;;4978167;28;20482;-78
2022/04/02 04:00:22;;;;;;;28.00;25.20;;;1.10;99.90;;;;;;4981126;28;20507;-78
2022/04/02 04:03:04;;;;;;;24.50;22.30;;;1.20;99.90;;;;;;4970295;28;20449;-78
2022/04/02 04:05:43;;;;;;;24.60;22.00;;;1.20;99.90;;;;;;4979492;28;20460;-78
2022/04/02 04:08:10;;;;;;;23.93;21.77;;;1.10;99.90;;;;;;4968751;28;20449;-78
2022/04/02 04:10:40;;;;;;;25.30;22.97;;;1.20;99.90;;;;;;4974299;28;20453;-78
2022/04/02 04:13:06;;;;;;;23.40;21.30;;;1.20;99.90;;;;;;4965560;28;20541;-78
2022/04/02 04:15:37;;;;;;;24.03;21.80;;;1.20;99.90;;;;;;4967221;28;20467;-78
2022/04/02 04:18:07;;;;;;;24.37;22.07;;;1.20;99.90;;;;;;4975778;28;20490;-78
2022/04/02 04:20:35;;;;;;;24.70;22.50;;;1.10;99.90;;;;;;4979406;28;20436;-78
2022/04/02 04:23:03;;;;;;;24.93;22.43;;;1.10;99.90;;;;;;4970749;28;20462;-78
2022/04/02 04:25:31;;;;;;;25.10;22.43;;;1.10;99.90;;;;;;4978707;28;20869;-78
2022/04/02 04:28:01;;;;;;;24.63;22.33;;;1.10;99.90;;;;;;4976653;28;20457;-78
2022/04/02 04:30:29;;;;;;;26.37;23.90;;;1.10;99.90;;;;;;4975252;28;20856;-78
2022/04/02 04:32:59;;;;;;;25.77;22.93;;;1.00;99.90;;;;;;4983058;28;20455;-78
2022/04/02 04:35:25;;;;;;;24.90;22.67;;;1.00;99.90;;;;;;4980215;28;20484;-77
2022/04/02 04:37:52;;;;;;;25.10;22.70;;;1.00;99.90;;;;;;4972468;28;20482;-79
2022/04/02 04:40:24;;;;;;;24.63;22.13;;;1.00;99.90;;;;;;4981182;28;20525;-78
2022/04/02 04:42:53;;;;;;;25.17;22.77;;;1.00;99.90;;;;;;4990814;28;20461;-78
2022/04/02 04:45:27;;;;;;;26.70;22.27;;;1.00;99.90;;;;;;4982390;28;20452;-80
2022/04/02 04:47:54;;;;;;;24.83;22.47;;;0.90;99.90;;;;;;4991910;28;20483;-81
2022/04/02 04:50:26;;;;;;;26.10;23.40;;;0.90;99.90;;;;;;4978924;28;20543;-78
2022/04/02 04:52:57;;;;;;;24.23;22.13;;;0.80;99.90;;;;;;4977197;28;20446;-79
2022/04/02 04:55:24;;;;;;;25.53;23.03;;;0.90;99.90;;;;;;4987206;28;20517;-80
2022/04/02 04:57:51;;;;;;;24.23;22.03;;;0.80;99.90;;;;;;4974393;28;20454;-79
2022/04/02 05:00:28;;;;;;;25.47;23.07;;;0.70;99.90;;;;;;4990642;28;20810;-79
2022/04/02 05:02:55;;;;;;;24.40;22.00;;;0.70;99.90;;;;;;4985605;28;20468;-79
2022/04/02 05:05:33;;;;;;;26.83;23.60;;;0.80;99.90;;;;;;4979057;28;20450;-79
2022/04/02 05:08:02;;;;;;;25.40;23.00;;;0.80;99.90;;;;;;4974789;28;20457;-78
2022/04/02 05:10:29;;;;;;;24.93;22.63;;;0.80;99.90;;;;;;4988256;28;20452;-79
2022/04/02 05:12:58;;;;;;;26.00;23.60;;;0.90;99.90;;;;;;4977351;28;20515;-79
2022/04/02 05:15:26;;;;;;;25.53;22.97;;;0.90;99.90;;;;;;4987904;28;20531;-78
2022/04/02 05:17:56;;;;;;;25.13;22.83;;;1.00;99.90;;;;;;4982194;28;20460;-78
2022/04/02 05:20:23;;;;;;;24.70;22.33;;;1.00;99.90;;;;;;4965900;28;20461;-80
2022/04/02 05:22:52;;;;;;;23.83;21.83;;;1.00;99.90;;;;;;4972254;28;20443;-81
2022/04/02 05:25:20;;;;;;;23.30;21.40;;;1.00;99.90;;;;;;4966206;28;20895;-81
2022/04/02 05:27:49;;;;;;;22.97;20.93;;;1.00;99.90;;;;;;4964145;28;20451;-81
2022/04/02 05:30:17;;;;;;;24.70;22.40;;;1.00;99.90;;;;;;4966059;28;20466;-80
2022/04/02 05:32:44;;;;;;;23.40;21.00;;;1.00;99.90;;;;;;4963841;28;20461;-81
2022/04/02 05:35:10;;;;;;;22.63;20.83;;;0.90;99.90;;;;;;4967683;28;20529;-82
2022/04/02 05:37:44;;;;;;;21.83;20.10;;;1.00;99.90;;;;;;4965580;28;20458;-81
2022/04/02 05:40:14;;;;;;;22.70;20.80;;;0.90;99.90;;;;;;4963258;28;20466;-81
2022/04/02 05:42:40;;;;;;;20.93;19.27;;;1.00;99.90;;;;;;4968028;28;20454;-81
2022/04/02 05:45:10;;;;;;;21.80;19.80;;;0.90;99.90;;;;;;4963933;28;20447;-81
2022/04/02 05:47:44;;;;;;;17.50;15.60;;;1.00;99.90;;;;;;4986493;28;20452;-79
2022/04/02 05:50:11;;;;;;;18.93;17.13;;;1.10;99.90;;;;;;4977510;28;20474;-80
2022/04/02 05:52:38;;;;;;;17.93;16.23;;;1.00;99.90;;;;;;4991221;28;20565;-80
2022/04/02 05:55:07;;;;;;;18.47;16.67;;;1.00;99.90;;;;;;4993242;28;20477;-80
2022/04/02 05:57:36;;;;;;;19.90;18.03;;;1.10;99.90;;;;;;4995920;28;20438;-81
2022/04/02 06:00:03;;;;;;;21.33;19.53;;;1.10;99.90;;;;;;4978511;28;21008;-84
2022/04/02 06:02:41;;;;;;;20.50;18.47;;;1.10;99.90;;;;;;4986457;28;20450;-79
2022/04/02 06:05:09;;;;;;;21.50;19.83;;;1.20;99.90;;;;;;4984884;28;20474;-79
2022/04/02 06:07:36;;;;;;;17.67;16.03;;;1.20;99.90;;;;;;4988933;28;20632;-79
2022/04/02 06:10:06;;;;;;;13.57;10.47;;;1.20;99.90;;;;;;4993001;28;20488;-79
2022/04/02 06:12:35;;;;;;;14.60;10.67;;;1.30;99.90;;;;;;4993693;28;20450;-79
2022/04/02 06:15:02;;;;;;;13.80;11.43;;;1.30;99.90;;;;;;4989754;28;20480;-79
2022/04/02 06:17:28;;;;;;;13.07;11.87;;;1.30;99.90;;;;;;4983081;28;20461;-79
2022/04/02 06:19:55;;;;;;;13.60;11.23;;;1.30;99.90;;;;;;4989570;28;20490;-79
2022/04/02 06:22:22;;;;;;;11.40;10.20;;;1.40;99.90;;;;;;4979120;28;20851;-78
2022/04/02 06:24:49;;;;;;;13.40;12.10;;;1.40;99.90;;;;;;4978690;28;20460;-80
2022/04/02 06:27:16;;;;;;;13.40;11.10;;;1.40;99.90;;;;;;4981008;28;20451;-79
2022/04/02 06:29:44;;;;;;;12.87;10.87;;;1.40;99.90;;;;;;4992786;23;20494;-81
2022/04/02 06:32:11;;;;;;;11.80;10.47;;;1.40;99.90;;;;;;4937640;29;20456;-83
2022/04/02 06:34:37;;;;;;;11.80;10.30;;;1.30;99.90;;;;;;4953423;28;20468;-86
2022/04/02 06:37:05;;;;;;;12.10;10.90;;;1.40;99.90;;;;;;4940758;29;20436;-83
2022/04/02 06:39:31;;;;;;;10.77;9.67;;;1.40;99.90;;;;;;4944595;29;20482;-85
2022/04/02 06:41:58;;;;;;;13.33;10.23;;;1.40;99.90;;;;;;4948073;28;20462;-86
2022/04/02 06:44:32;;;;;;;12.63;10.67;;;1.40;99.90;;;;;;4953145;29;20463;-86
2022/04/02 06:47:00;;;;;;;11.67;10.43;;;1.40;99.90;;;;;;4952815;29;20526;-85
2022/04/02 06:49:28;;;;;;;11.67;10.47;;;1.50;99.90;;;;;;4950069;29;20474;-84
2022/04/02 06:51:54;;;;;;;13.77;11.27;;;1.40;99.90;;;;;;4947169;29;20449;-84
2022/04/02 06:54:22;;;;;;;18.10;16.73;;;1.50;99.90;;;;;;4941979;29;20499;-83
2022/04/02 06:56:50;;;;;;;18.67;17.00;;;1.50;99.90;;;;;;4950671;29;20927;-85
2022/04/02 06:59:17;;;;;;;18.00;16.47;;;1.60;99.90;;;;;;4945016;28;20485;-82
2022/04/02 07:01:44;;;;;;;18.53;16.93;;;1.60;99.90;;;;;;4946725;29;20445;-86
2022/04/02 07:04:12;;;;;;;16.90;15.50;;;1.50;99.90;;;;;;4941628;29;20450;-84
2022/04/02 07:06:44;;;;;;;11.30;9.87;;;1.60;99.90;;;;;;4954957;28;20456;-82
2022/04/02 07:09:11;;;;;;;10.93;9.57;;;1.60;99.90;;;;;;4940526;29;20558;-84
2022/04/02 07:11:38;;;;;;;10.67;9.13;;;1.50;99.90;;;;;;4949768;28;20613;-85
2022/04/02 07:14:05;;;;;;;10.13;9.13;;;1.50;99.90;;;;;;4946325;29;20451;-85
2022/04/02 07:16:32;;;;;;;9.90;8.90;;;1.60;99.90;;;;;;4954266;29;20446;-84
2022/04/02 07:19:01;;;;;;;9.83;8.93;;;1.70;99.90;;;;;;4952678;29;21050;-84
2022/04/02 07:21:30;;;;;;;10.93;9.90;;;1.70;99.90;;;;;;4951621;29;20459;-86
2022/04/02 07:23:57;;;;;;;10.60;9.27;;;1.70;99.90;;;;;;4953027;28;20453;-86
2022/04/02 07:26:25;;;;;;;11.03;10.03;;;1.70;99.90;;;;;;4956738;29;20461;-84
2022/04/02 07:28:54;;;;;;;11.27;10.20;;;1.70;99.90;;;;;;4950056;29;20988;-85
2022/04/02 07:31:21;;;;;;;11.23;10.13;;;1.70;99.90;;;;;;4959159;29;20445;-85
2022/04/02 07:33:48;;;;;;;11.17;10.20;;;1.70;99.90;;;;;;4949712;29;20829;-87
2022/04/02 07:36:24;;;;;;;10.80;9.80;;;1.80;99.90;;;;;;4950087;29;20474;-85
2022/04/02 07:39:02;;;;;;;10.50;9.50;;;1.70;99.90;;;;;;4951144;29;20574;-85
2022/04/02 07:41:43;;;;;;;9.43;8.40;;;1.60;99.90;;;;;;4950494;29;20460;-86
2022/04/02 07:44:22;;;;;;;9.70;8.23;;;1.70;99.90;;;;;;4951416;29;20445;-87
2022/04/02 07:46:49;;;;;;;10.33;8.63;;;1.70;99.90;;;;;;4951565;29;20461;-84
2022/04/02 07:49:21;;;;;;;9.17;8.30;;;1.70;99.90;;;;;;4957172;28;20535;-84
2022/04/02 07:51:51;;;;;;;10.13;9.23;;;1.90;99.90;;;;;;4944380;29;20454;-85
2022/04/02 07:54:23;;;;;;;11.77;7.63;;;1.90;99.90;;;;;;4949278;29;20471;-83
2022/04/02 07:56:51;;;;;;;8.90;8.00;;;1.90;99.90;;;;;;4952700;29;20526;-84
2022/04/02 07:59:26;;;;;;;9.83;8.27;;;1.90;99.90;;;;;;4947796;29;20487;-84
2022/04/02 08:01:54;;;;;;;10.33;9.40;;;1.90;99.90;;;;;;4940438;29;20452;-85
2022/04/02 08:04:22;;;;;;;10.47;9.00;;;2.00;99.90;;;;;;4936074;28;20856;-81
2022/04/02 08:06:50;;;;;;;9.30;7.83;;;2.00;99.90;;;;;;4938491;28;20458;-80
2022/04/02 08:09:21;;;;;;;8.90;8.00;;;2.00;99.90;;;;;;4944201;29;20494;-80
2022/04/02 08:11:49;;;;;;;8.70;7.80;;;2.10;99.90;;;;;;4949733;29;20458;-80
2022/04/02 08:14:18;;;;;;;12.53;10.90;;;1.90;99.90;;;;;;4943179;29;20490;-81
2022/04/02 08:16:45;;;;;;;14.50;13.20;;;1.90;99.90;;;;;;4947787;28;20514;-81
2022/04/02 08:19:14;;;;;;;15.03;13.87;;;2.00;99.90;;;;;;4954353;29;20464;-80
2022/04/02 08:21:41;;;;;;;12.40;11.23;;;1.90;99.90;;;;;;4952205;29;20462;-81
2022/04/02 08:24:08;;;;;;;11.93;10.93;;;1.90;99.90;;;;;;4945756;29;20475;-81
2022/04/02 08:26:56;;;;;;;13.30;12.17;;;2.10;99.90;;;;;;4949166;29;20513;-80
2022/04/02 08:29:44;;;;;;;13.70;12.60;;;2.20;99.90;;;;;;4943407;29;20491;-80
2022/04/02 08:32:24;;;;;;;13.17;12.03;;;2.20;99.90;;;;;;4950693;28;20515;-81
2022/04/02 08:35:05;;;;;;;13.07;12.07;;;2.20;99.90;;;;;;4935976;29;20537;-81
2022/04/02 08:37:54;;;;;;;16.20;15.00;;;2.40;99.90;;;;;;4944892;28;21009;-81
2022/04/02 08:40:44;;;;;;;13.40;12.17;;;2.50;99.90;;;;;;4953209;29;20526;-80
2022/04/02 08:43:39;;;;;;;16.47;15.27;;;2.70;99.90;;;;;;4940943;28;20457;-78
2022/04/02 08:46:16;;;;;;;8.87;7.83;;;2.60;99.90;;;;;;4939754;29;20479;-80
2022/04/02 08:48:55;;;;;;;9.30;7.93;;;2.70;99.90;;;;;;4940051;29;20493;-79
2022/04/02 08:51:39;;;;;;;16.40;15.17;;;2.70;99.90;;;;;;4947801;29;20540;-79
2022/04/02 08:54:21;;;;;;;10.73;9.83;;;2.70;99.90;;;;;;4951666;29;20458;-80
2022/04/02 08:56:49;;;;;;;14.00;12.80;;;2.50;99.90;;;;;;4940903;29;20533;-78
2022/04/02 08:59:34;;;;;;;16.07;14.87;;;2.50;99.90;;;;;;4950621;29;20553;-78
2022/04/02 09:02:28;;;;;;;12.43;11.37;;;2.50;99.90;;;;;;4939960;29;20440;-81
2022/04/02 09:05:23;;;;;;;15.40;14.20;;;2.50;99.90;;;;;;4946517;29;20480;-83
2022/04/02 09:08:34;;;;;;;13.00;12.00;;;2.50;99.90;;;;;;4915531;29;20889;-85
2022/04/02 09:11:24;;;;;;;13.17;10.80;;;2.50;99.90;;;;;;4945413;29;21010;-86
2022/04/02 09:14:25;;;;;;;12.60;11.47;;;2.50;99.90;;;;;;4949844;29;20544;-83
2022/04/02 09:17:02;;;;;;;8.52;7.63;;;2.50;99.90;;;;;;4954265;28;21006;-85
2022/04/02 09:19:51;;;;;;;15.18;13.88;;;2.50;99.90;;;;;;4947497;29;20452;-82
2022/04/02 09:22:48;;;;;;;16.60;15.33;;;2.30;99.90;;;;;;4944827;28;20645;-80
2022/04/02 09:25:56;;;;;;;16.33;14.83;;;2.00;99.90;;;;;;4932854;29;20523;-82
2022/04/02 09:28:43;;;;;;;16.73;15.40;;;2.10;99.90;;;;;;4943587;28;20451;-80
2022/04/02 09:31:43;;;;;;;16.70;15.33;;;2.20;99.90;;;;;;4941897;29;20519;-81
2022/04/02 09:34:42;;;;;;;15.63;14.47;;;2.10;99.90;;;;;;4950180;28;20434;-81
2022/04/02 09:37:20;;;;;;;15.77;14.60;;;2.20;99.90;;;;;;4942077;29;20440;-85
2022/04/02 09:39:58;;;;;;;15.27;14.17;;;2.30;99.90;;;;;;4951374;28;20992;-81
2022/04/02 09:42:35;;;;;;;15.77;14.67;;;2.40;99.90;;;;;;4950926;29;20450;-81
2022/04/02 09:45:08;;;;;;;16.20;15.00;;;2.40;99.90;;;;;;4950791;28;20431;-81
2022/04/02 09:48:07;;;;;;;16.87;15.33;;;2.50;99.90;;;;;;4953338;29;20530;-82
2022/04/02 09:50:35;;;;;;;15.93;14.83;;;2.40;99.90;;;;;;4942413;28;20549;-81
2022/04/02 09:53:19;;;;;;;16.67;15.17;;;2.20;99.90;;;;;;4947217;28;20507;-82
2022/04/02 09:55:57;;;;;;;9.83;8.23;;;2.00;99.90;;;;;;4944024;29;20485;-81
2022/04/02 09:58:58;;;;;;;10.60;9.70;;;1.90;99.90;;;;;;4945250;29;20450;-81
2022/04/02 10:01:30;;;;;;;16.10;14.83;;;1.80;99.90;;;;;;4948709;29;20486;-81
2022/04/02 10:04:01;;;;;;;11.00;9.87;;;1.80;99.90;;;;;;4948267;29;20467;-86
2022/04/02 10:06:35;;;;;;;11.03;10.07;;;1.90;99.90;;;;;;4944539;29;20470;-80
2022/04/02 10:09:11;;;;;;;8.27;7.47;;;1.90;99.90;;;;;;4937215;29;20548;-82
2022/04/02 10:11:52;;;;;;;9.10;8.20;;;2.00;99.90;;;;;;4961932;28;20556;-81
2022/04/02 10:14:23;;;;;;;9.60;8.53;;;2.00;99.90;;;;;;4947892;28;20530;-80
2022/04/02 10:16:52;;;;;;;10.37;9.33;;;2.00;99.90;;;;;;4940673;29;20553;-81
2022/04/02 10:19:28;;;;;;;8.27;7.40;;;2.20;99.90;;;;;;4943568;29;20537;-83
2022/04/02 10:21:57;;;;;;;10.43;9.43;;;2.40;99.90;;;;;;4936677;29;20452;-82
2022/04/02 10:24:26;;;;;;;11.17;10.17;;;2.30;99.90;;;;;;4941870;28;20866;-81
2022/04/02 10:26:55;;;;;;;11.27;10.27;;;2.20;99.90;;;;;;4925701;29;20827;-80
2022/04/02 10:29:39;;;;;;;12.20;10.17;;;2.30;99.90;;;;;;4942946;29;20487;-82
2022/04/02 10:32:28;;;;;;;14.13;12.00;;;2.30;99.90;;;;;;4945731;29;20458;-80
2022/04/02 10:35:03;;;;;;;10.27;8.60;;;2.30;99.90;;;;;;4938523;29;20809;-82
2022/04/02 10:37:38;;;;;;;18.48;17.13;;;2.30;99.90;;;;;;4950081;29;20449;-80
2022/04/02 10:40:08;;;;;;;11.47;10.30;;;2.40;99.90;;;;;;4948956;28;20226;-82
2022/04/02 10:42:36;;;;;;;16.47;15.17;;;2.50;99.90;;;;;;4950675;29;20449;-82
2022/04/02 10:45:06;;;;;;;16.93;15.57;;;2.50;99.90;;;;;;4949208;28;20926;-79
2022/04/02 10:47:46;;;;;;;16.47;15.07;;;2.40;99.90;;;;;;4953471;29;20958;-83
2022/04/02 10:50:18;;;;;;;16.20;14.90;;;2.50;99.90;;;;;;4945277;29;20458;-81
2022/04/02 10:52:48;;;;;;;16.23;15.03;;;2.60;99.90;;;;;;4950616;28;20446;-81
2022/04/02 10:55:17;;;;;;;16.63;15.23;;;3.00;99.90;;;;;;4939154;29;20901;-79
2022/04/02 10:57:44;;;;;;;16.23;14.93;;;3.10;99.90;;;;;;4948603;28;20456;-80
2022/04/02 11:00:12;;;;;;;16.43;15.13;;;3.20;99.90;;;;;;4948013;29;20469;-80
2022/04/02 11:02:41;;;;;;;19.30;17.90;;;3.30;99.90;;;;;;4946755;29;20231;-81
2022/04/02 11:05:10;;;;;;;17.57;16.27;;;2.90;99.90;;;;;;4951648;29;20225;-85
2022/04/02 11:07:43;;;;;;;16.80;15.50;;;2.70;99.90;;;;;;4938771;29;20444;-82
2022/04/02 11:10:14;;;;;;;16.93;15.33;;;2.80;99.90;;;;;;4952497;29;20528;-80
2022/04/02 11:12:44;;;;;;;16.07;14.77;;;3.00;99.90;;;;;;4949775;29;20431;-85
2022/04/02 11:15:13;;;;;;;16.63;15.43;;;3.20;99.90;;;;;;4948712;29;20454;-82
2022/04/02 11:17:42;;;;;;;11.23;10.23;;;3.10;99.90;;;;;;4951921;29;20446;-86
2022/04/02 11:20:12;;;;;;;11.07;8.23;;;3.10;99.90;;;;;;4948039;29;20222;-82
2022/04/02 11:23:03;;;;;;;9.53;8.60;;;3.50;99.90;;;;;;4969501;28;20588;-84
2022/04/02 11:25:36;;;;;;;9.87;7.97;;;3.80;99.90;;;;;;4949491;29;20443;-83
2022/04/02 11:28:11;;;;;;;9.50;7.33;;;3.70;99.90;;;;;;4956392;29;20194;-83
2022/04/02 11:30:41;;;;;;;10.40;9.40;;;3.80;99.90;;;;;;4949114;29;20230;-84
2022/04/02 11:33:09;;;;;;;14.70;13.47;;;3.80;99.90;;;;;;4940099;29;20267;-79
2022/04/02 11:35:41;;;;;;;14.90;13.70;;;3.60;99.90;;;;;;4936607;29;20227;-82
2022/04/02 11:38:30;;;;;;;14.97;12.97;;;3.50;99.90;;;;;;4954091;28;20450;-82
2022/04/02 11:41:13;;;;;;;16.23;14.80;;;3.50;99.90;;;;;;4949794;29;20301;-79
2022/04/02 11:43:41;;;;;;;12.33;11.33;;;3.70;99.90;;;;;;4946673;29;20206;-81
2022/04/02 11:46:10;;;;;;;16.00;14.70;;;3.80;99.90;;;;;;4945593;29;20286;-83
2022/04/02 11:48:39;;;;;;;15.40;14.20;;;3.60;99.90;;;;;;4946534;29;20204;-82
2022/04/02 11:51:15;;;;;;;13.40;12.30;;;3.40;99.90;;;;;;4947372;29;20219;-84
2022/04/02 11:53:45;;;;;;;14.03;12.67;;;3.40;99.90;;;;;;4947687;29;20202;-80
2022/04/02 11:56:30;;;;;;;13.23;11.03;;;3.40;99.90;;;;;;4958989;28;20242;-81
2022/04/02 11:58:59;;;;;;;16.50;15.17;;;3.50;99.90;;;;;;4945445;29;20294;-80
2022/04/02 12:01:27;;;;;;;14.87;13.57;;;3.40;99.90;;;;;;4962709;29;20219;-81
2022/04/02 12:04:09;;;;;;;15.77;14.47;;;3.30;99.90;;;;;;4957475;29;20563;-81
2022/04/02 12:06:37;;;;;;;16.37;14.97;;;3.30;99.90;;;;;;4956435;29;20241;-82
2022/04/02 12:09:18;;;;;;;16.17;14.93;;;3.20;99.90;;;;;;4956853;28;20258;-83
2022/04/02 12:11:51;;;;;;;12.37;11.07;;;3.40;99.90;;;;;;4949187;29;20517;-80
2022/04/02 12:14:36;;;;;;;14.10;12.90;;;3.40;99.90;;;;;;4957167;29;20223;-83
2022/04/02 12:17:09;;;;;;;15.30;14.10;;;3.40;99.90;;;;;;4958276;28;20211;-82
2022/04/02 12:19:41;;;;;;;15.17;13.87;;;3.50;99.90;;;;;;4959653;29;20223;-82
2022/04/02 12:22:25;;;;;;;16.67;15.37;;;3.40;99.90;;;;;;4958002;29;20198;-82
2022/04/02 12:24:55;;;;;;;18.60;17.00;;;3.40;99.90;;;;;;4977404;28;20226;-81
2022/04/02 12:27:24;;;;;;;11.67;9.53;;;3.40;99.90;;;;;;4954252;28;20210;-82
2022/04/02 12:29:52;;;;;;;11.03;9.83;;;3.50;99.90;;;;;;4951891;28;20304;-81
2022/04/02 12:32:30;;;;;;;11.50;9.50;;;3.60;99.90;;;;;;4966850;29;20498;-80
2022/04/02 12:34:58;;;;;;;12.67;11.37;;;3.30;99.90;;;;;;4957441;29;20203;-84
2022/04/02 12:37:30;;;;;;;16.00;14.70;;;3.10;99.90;;;;;;4957908;29;20234;-79
2022/04/02 12:39:59;;;;;;;16.10;14.70;;;2.90;99.90;;;;;;4955352;29;20472;-82
2022/04/02 12:42:37;;;;;;;17.87;16.43;;;2.70;99.90;;;;;;4959134;29;21037;-79
2022/04/02 12:45:13;;;;;;;18.77;17.27;;;2.60;99.90;;;;;;4959268;28;20946;-79
2022/04/02 12:47:41;;;;;;;17.27;15.87;;;2.60;99.90;;;;;;4953272;29;20457;-80
2022/04/02 12:50:12;;;;;;;19.03;17.37;;;2.50;99.90;;;;;;4955546;29;20654;-79
2022/04/02 12:52:45;;;;;;;18.60;17.20;;;2.60;99.90;;;;;;4953001;29;20468;-79
2022/04/02 12:55:19;;;;;;;20.23;18.37;;;2.80;99.90;;;;;;4964250;29;20439;-80
2022/04/02 12:57:57;;;;;;;21.03;18.80;;;2.80;99.90;;;;;;4950340;29;20487;-83
2022/04/02 13:00:30;;;;;;;19.33;17.57;;;2.70;99.90;;;;;;4954627;29;20479;-79
2022/04/02 13:02:59;;;;;;;19.03;17.37;;;2.50;99.90;;;;;;4954132;28;20447;-83
2022/04/02 13:05:43;;;;;;;18.33;16.67;;;2.60;99.90;;;;;;4947895;29;20484;-83
2022/04/02 13:08:25;;;;;;;19.60;17.77;;;2.40;99.90;;;;;;4951049;29;20451;-83